Time;durP1;ratioP1;P1;durP2;ratioP2;P2;SDS_P1;SDS_P2;PMS_P1;PMS_P2;Temp;Humidity;BMP_temperature;BMP_pressure;BME280_temperature;BME280_humidity;BME280_pressure;Samples;Min_cycle;Max_cycle;Signal;HPM_P1;HPM_P2
2022/04/23 00:00:07;;;;;;;17.92;16.42;;;11.20;99.90;;;;;;6001874;23;20249;-83
2022/04/23 00:02:34;;;;;;;18.60;17.00;;;11.10;99.90;;;;;;5998400;23;20199;-82
2022/04/23 00:05:00;;;;;;;17.27;15.88;;;11.10;99.90;;;;;;5993231;23;20649;-81
2022/04/23 00:07:27;;;;;;;18.63;17.13;;;11.10;99.90;;;;;;5995994;23;20198;-82
2022/04/23 00:09:56;;;;;;;17.92;16.27;;;11.10;99.90;;;;;;6000695;23;20250;-82
2022/04/23 00:12:23;;;;;;;18.52;16.60;;;11.00;99.90;;;;;;6000573;23;20281;-82
2022/04/23 00:14:50;;;;;;;17.38;15.70;;;10.90;99.90;;;;;;5997529;23;20226;-82
2022/04/23 00:17:18;;;;;;;17.77;16.33;;;11.00;99.90;;;;;;5998511;23;20193;-81
2022/04/23 00:19:46;;;;;;;17.40;16.00;;;10.90;99.90;;;;;;6001021;23;20577;-81
2022/04/23 00:22:15;;;;;;;17.92;16.25;;;10.90;99.90;;;;;;5999958;23;20680;-81
2022/04/23 00:24:43;;;;;;;17.80;16.15;;;10.90;99.90;;;;;;5994167;23;20191;-82
2022/04/23 00:27:12;;;;;;;19.02;17.17;;;10.90;99.90;;;;;;5993658;23;20198;-81
2022/04/23 00:29:39;;;;;;;17.98;16.38;;;11.00;99.90;;;;;;5997777;23;20222;-81
2022/04/23 00:32:08;;;;;;;17.05;15.63;;;10.90;99.90;;;;;;6000074;23;20198;-82
2022/04/23 00:34:35;;;;;;;17.08;15.63;;;10.90;99.90;;;;;;5999828;23;20194;-82
2022/04/23 00:37:03;;;;;;;18.35;16.75;;;10.90;99.90;;;;;;6000222;23;20605;-81
2022/04/23 00:39:30;;;;;;;18.08;16.58;;;10.90;99.90;;;;;;5997922;23;20261;-82
2022/04/23 00:41:59;;;;;;;18.10;16.60;;;10.80;99.90;;;;;;5998424;23;20197;-81
2022/04/23 00:44:27;;;;;;;16.92;15.43;;;10.80;99.90;;;;;;5997590;23;20641;-81
2022/04/23 00:46:54;;;;;;;17.38;15.68;;;10.70;99.90;;;;;;5997734;23;20193;-81
2022/04/23 00:49:21;;;;;;;17.85;16.25;;;10.60;99.90;;;;;;6000832;23;20241;-81
2022/04/23 00:51:49;;;;;;;17.92;16.42;;;10.60;99.90;;;;;;6002061;23;20194;-81
2022/04/23 00:54:16;;;;;;;17.23;15.65;;;10.50;99.90;;;;;;5991293;23;20738;-81
2022/04/23 00:56:44;;;;;;;17.13;15.63;;;10.40;99.90;;;;;;6000625;23;20205;-82
2022/04/23 00:59:12;;;;;;;17.30;15.75;;;10.40;99.90;;;;;;5994318;23;20225;-83
2022/04/23 01:01:42;;;;;;;16.95;15.35;;;10.30;99.90;;;;;;5993211;23;20350;-82
2022/04/23 01:04:12;;;;;;;17.83;16.15;;;10.30;99.90;;;;;;6001194;23;20205;-82
2022/04/23 01:06:40;;;;;;;17.23;15.77;;;10.30;99.90;;;;;;5989197;23;20194;-82
2022/04/23 01:09:09;;;;;;;17.73;16.13;;;10.20;99.90;;;;;;5998081;23;20234;-82
2022/04/23 01:11:36;;;;;;;18.00;16.50;;;10.20;99.90;;;;;;5991485;23;20225;-82
2022/04/23 01:14:04;;;;;;;17.58;16.00;;;10.20;99.90;;;;;;6001289;23;20228;-83
2022/04/23 01:16:31;;;;;;;16.75;15.25;;;10.10;99.90;;;;;;5990752;23;20222;-82
2022/04/23 01:19:00;;;;;;;16.52;15.13;;;10.10;99.90;;;;;;5994424;23;20222;-82
2022/04/23 01:21:28;;;;;;;17.40;15.85;;;10.10;99.90;;;;;;5999678;23;20303;-82
2022/04/23 01:23:57;;;;;;;18.02;16.40;;;10.00;99.90;;;;;;6002635;23;20607;-82
2022/04/23 01:26:27;;;;;;;17.60;16.10;;;10.00;99.90;;;;;;5996788;23;20200;-82
2022/04/23 01:28:55;;;;;;;17.13;15.60;;;10.00;99.90;;;;;;5999631;23;20231;-82
2022/04/23 01:31:22;;;;;;;16.40;14.90;;;9.90;99.90;;;;;;5991361;23;20202;-82
2022/04/23 01:33:49;;;;;;;16.90;15.50;;;9.90;99.90;;;;;;5997446;23;20259;-82
2022/04/23 01:36:17;;;;;;;15.70;14.40;;;9.90;99.90;;;;;;5992220;23;20332;-82
2022/04/23 01:38:46;;;;;;;15.98;14.52;;;9.90;99.90;;;;;;6001539;23;20217;-82
2022/04/23 01:41:13;;;;;;;15.73;14.32;;;9.90;99.90;;;;;;5997268;23;20562;-81
2022/04/23 01:43:40;;;;;;;14.80;13.50;;;9.90;99.90;;;;;;5998750;23;20703;-82
2022/04/23 01:46:07;;;;;;;15.25;13.95;;;9.90;99.90;;;;;;6003718;23;20267;-82
2022/04/23 01:48:34;;;;;;;15.20;13.90;;;9.90;99.90;;;;;;6001220;23;20285;-82
2022/04/23 01:51:02;;;;;;;14.65;13.35;;;9.90;99.90;;;;;;5993581;23;20227;-81
2022/04/23 01:53:29;;;;;;;13.35;12.15;;;9.90;99.90;;;;;;5997586;23;20196;-82
2022/04/23 01:55:57;;;;;;;14.80;13.43;;;9.90;99.90;;;;;;6001082;23;20197;-81
2022/04/23 01:58:25;;;;;;;13.80;12.60;;;10.00;99.90;;;;;;5996449;23;20302;-80
2022/04/23 02:00:52;;;;;;;15.23;13.82;;;9.90;99.90;;;;;;6000096;23;20545;-81
2022/04/23 02:03:19;;;;;;;12.95;11.77;;;9.90;99.90;;;;;;5994862;23;20704;-82
2022/04/23 02:05:46;;;;;;;14.20;12.93;;;9.80;99.90;;;;;;5999856;23;20231;-82
2022/04/23 02:08:18;;;;;;;13.95;12.80;;;9.80;99.90;;;;;;5997257;23;20217;-81
2022/04/23 02:10:45;;;;;;;14.20;13.10;;;9.70;99.90;;;;;;5985862;23;20196;-82
2022/04/23 02:13:14;;;;;;;13.90;12.70;;;9.70;99.90;;;;;;6002693;23;20220;-82
2022/04/23 02:15:41;;;;;;;14.10;12.90;;;9.60;99.90;;;;;;5997082;23;20275;-81
2022/04/23 02:18:09;;;;;;;15.70;14.38;;;9.60;99.90;;;;;;5990506;23;20282;-81
2022/04/23 02:20:36;;;;;;;13.40;12.30;;;9.50;99.90;;;;;;6001015;23;20227;-82
2022/04/23 02:23:04;;;;;;;14.20;12.90;;;9.50;99.90;;;;;;5987343;23;20196;-81
2022/04/23 02:25:34;;;;;;;14.30;13.00;;;9.40;99.90;;;;;;5983659;23;20274;-82
2022/04/23 02:28:01;;;;;;;14.50;13.30;;;9.40;99.90;;;;;;6000067;23;20677;-82
2022/04/23 02:30:30;;;;;;;15.13;13.82;;;9.30;99.90;;;;;;6001140;23;20191;-82
2022/04/23 02:32:57;;;;;;;13.43;12.32;;;9.30;99.90;;;;;;5992108;23;20273;-82
2022/04/23 02:35:25;;;;;;;15.07;13.88;;;9.20;99.90;;;;;;6001135;23;20928;-82
2022/04/23 02:37:55;;;;;;;13.63;12.52;;;9.20;99.90;;;;;;5993658;23;20568;-81
2022/04/23 02:40:22;;;;;;;14.20;13.00;;;9.20;99.90;;;;;;5991743;23;20223;-82
2022/04/23 02:42:50;;;;;;;13.95;12.77;;;9.20;99.90;;;;;;5990745;23;20193;-81
2022/04/23 02:45:20;;;;;;;14.00;12.85;;;9.30;99.90;;;;;;5991627;23;20197;-82
2022/04/23 02:47:50;;;;;;;13.27;12.18;;;9.20;99.90;;;;;;5994661;23;20291;-82
2022/04/23 02:50:25;;;;;;;14.27;13.07;;;9.30;99.90;;;;;;5997287;23;20750;-82
2022/04/23 02:52:53;;;;;;;14.35;13.05;;;9.30;99.90;;;;;;6000346;23;20635;-81
2022/04/23 02:55:21;;;;;;;14.95;13.57;;;9.20;99.90;;;;;;5981458;23;20640;-83
2022/04/23 02:57:48;;;;;;;14.57;13.30;;;9.20;99.90;;;;;;5998361;23;20211;-82
2022/04/23 03:00:15;;;;;;;13.23;12.15;;;9.20;99.90;;;;;;5997623;23;20221;-82
2022/04/23 03:02:44;;;;;;;14.60;13.25;;;9.20;99.90;;;;;;5997969;23;20192;-82
2022/04/23 03:05:14;;;;;;;14.55;13.25;;;9.10;99.90;;;;;;6002127;23;20220;-81
2022/04/23 03:07:41;;;;;;;14.35;13.05;;;9.10;99.90;;;;;;5995546;23;20214;-81
2022/04/23 03:10:10;;;;;;;15.25;13.95;;;9.10;99.90;;;;;;5999890;23;20196;-82
2022/04/23 03:12:38;;;;;;;14.07;12.88;;;9.10;99.90;;;;;;6002147;23;20550;-82
2022/04/23 03:15:07;;;;;;;15.95;14.55;;;9.10;99.90;;;;;;6003640;23;20616;-81
2022/04/23 03:17:34;;;;;;;14.90;13.70;;;9.10;99.90;;;;;;5989156;23;20224;-82
2022/04/23 03:20:01;;;;;;;15.35;14.02;;;9.10;99.90;;;;;;5994638;23;20274;-82
2022/04/23 03:22:30;;;;;;;14.10;12.93;;;9.10;99.90;;;;;;5987289;23;20200;-81
2022/04/23 03:24:57;;;;;;;14.90;13.65;;;9.10;99.90;;;;;;6002943;23;20203;-82
2022/04/23 03:27:23;;;;;;;13.70;12.60;;;9.10;99.90;;;;;;6002861;23;20197;-82
2022/04/23 03:29:50;;;;;;;14.35;13.15;;;9.10;99.90;;;;;;5999011;23;20202;-82
2022/04/23 03:32:17;;;;;;;13.73;12.65;;;9.20;99.90;;;;;;5994649;23;20202;-81
2022/04/23 03:34:44;;;;;;;13.65;12.55;;;9.20;99.90;;;;;;5994079;23;20276;-82
2022/04/23 03:37:12;;;;;;;12.77;11.75;;;9.10;99.90;;;;;;5991672;23;20196;-82
2022/04/23 03:39:40;;;;;;;13.30;12.18;;;9.10;99.90;;;;;;6000993;23;20654;-82
2022/04/23 03:42:07;;;;;;;13.18;12.02;;;9.00;99.90;;;;;;5990070;23;20687;-81
2022/04/23 03:44:34;;;;;;;12.95;11.88;;;9.00;99.90;;;;;;5997858;23;20195;-82
2022/04/23 03:47:02;;;;;;;13.32;12.23;;;9.00;99.90;;;;;;6002625;23;20204;-82
2022/04/23 03:49:29;;;;;;;13.40;12.20;;;9.00;99.90;;;;;;5996620;23;20606;-82
2022/04/23 03:51:57;;;;;;;12.10;11.10;;;9.00;99.90;;;;;;6001935;23;20519;-82
2022/04/23 03:54:24;;;;;;;14.68;12.35;;;9.00;99.90;;;;;;5991992;23;20204;-81
2022/04/23 03:56:53;;;;;;;13.80;12.70;;;9.00;99.90;;;;;;5996132;23;20194;-82
2022/04/23 03:59:23;;;;;;;13.98;12.82;;;9.00;99.90;;;;;;6000430;23;20223;-82
2022/04/23 04:01:52;;;;;;;13.18;12.07;;;9.00;99.90;;;;;;6002391;23;20214;-82
2022/04/23 04:04:18;;;;;;;12.85;11.85;;;9.00;99.90;;;;;;6002263;23;20228;-79
2022/04/23 04:06:45;;;;;;;13.73;12.52;;;8.90;99.90;;;;;;5995816;23;20246;-79
2022/04/23 04:09:13;;;;;;;12.75;11.75;;;8.90;99.90;;;;;;5976003;23;20766;-78
2022/04/23 04:14:37;;;;;;;14.20;13.02;;;8.90;99.90;;;;;;5912973;24;20627;-79
2022/04/23 04:17:07;;;;;;;12.60;11.60;;;8.90;99.90;;;;;;5954167;23;20215;-79
2022/04/23 04:19:35;;;;;;;14.48;13.27;;;8.90;99.90;;;;;;5973961;24;20191;-79
2022/04/23 04:22:03;;;;;;;14.43;13.23;;;8.80;99.90;;;;;;5974193;23;20223;-77
2022/04/23 04:24:31;;;;;;;14.05;12.95;;;8.80;99.90;;;;;;5974422;24;20207;-77
2022/04/23 04:27:00;;;;;;;14.48;13.20;;;8.70;99.90;;;;;;5973841;23;20192;-78
2022/04/23 04:29:28;;;;;;;13.95;12.75;;;8.60;99.90;;;;;;5973728;23;20206;-77
2022/04/23 04:31:56;;;;;;;14.35;13.05;;;8.60;99.90;;;;;;5973644;24;20208;-79
2022/04/23 04:34:28;;;;;;;15.70;14.30;;;8.60;99.90;;;;;;5974575;24;20222;-78
2022/04/23 04:37:02;;;;;;;15.23;13.88;;;8.50;99.90;;;;;;5972311;24;20223;-77
2022/04/23 04:39:30;;;;;;;14.65;13.35;;;8.60;99.90;;;;;;5969076;24;20196;-77
2022/04/23 04:41:57;;;;;;;14.75;13.50;;;8.60;99.90;;;;;;5974064;24;20227;-78
2022/04/23 04:44:24;;;;;;;15.90;14.60;;;8.70;99.90;;;;;;5973954;24;20643;-77
2022/04/23 04:46:51;;;;;;;13.98;12.88;;;8.70;99.90;;;;;;5969058;24;20193;-78
2022/04/23 04:49:20;;;;;;;14.18;12.93;;;8.80;99.90;;;;;;5968898;23;20647;-77
2022/04/23 04:51:47;;;;;;;14.90;13.63;;;8.90;99.90;;;;;;5974395;24;20200;-78
2022/04/23 04:54:14;;;;;;;14.52;13.23;;;8.90;99.90;;;;;;5971052;24;20666;-78
2022/04/23 04:56:41;;;;;;;14.73;13.48;;;8.90;99.90;;;;;;5975882;24;20465;-78
2022/04/23 04:59:07;;;;;;;13.80;12.60;;;8.90;99.90;;;;;;5974076;23;20243;-77
2022/04/23 05:01:34;;;;;;;14.07;12.88;;;8.90;99.90;;;;;;5974731;24;20352;-78
2022/04/23 05:04:02;;;;;;;14.90;13.60;;;8.90;99.90;;;;;;5974077;24;20207;-77
2022/04/23 05:06:30;;;;;;;15.18;13.77;;;8.90;99.90;;;;;;5975912;24;20250;-77
2022/04/23 05:08:57;;;;;;;14.30;13.05;;;9.00;99.90;;;;;;5975011;24;20219;-77
2022/04/23 05:11:25;;;;;;;13.20;12.10;;;9.00;99.90;;;;;;5971342;24;20204;-78
2022/04/23 05:13:52;;;;;;;13.80;12.60;;;9.00;99.90;;;;;;5974754;24;20202;-77
2022/04/23 05:16:19;;;;;;;13.60;12.27;;;9.10;99.90;;;;;;5974807;24;20192;-78
2022/04/23 05:18:46;;;;;;;13.02;11.93;;;9.20;99.90;;;;;;5974688;23;20239;-77
2022/04/23 05:21:12;;;;;;;14.55;13.35;;;9.30;99.90;;;;;;5972293;24;20316;-77
2022/04/23 05:23:41;;;;;;;13.60;12.50;;;9.30;99.90;;;;;;5974359;24;20194;-77
2022/04/23 05:26:09;;;;;;;13.75;12.55;;;9.40;99.90;;;;;;5974482;24;20192;-78
2022/04/23 05:28:36;;;;;;;14.20;13.00;;;9.40;99.90;;;;;;5974757;24;20232;-77
2022/04/23 05:31:03;;;;;;;13.90;12.70;;;9.30;99.90;;;;;;5979383;24;20259;-77
2022/04/23 05:33:30;;;;;;;15.00;13.70;;;9.30;99.90;;;;;;5977692;24;20284;-77
2022/04/23 05:35:57;;;;;;;13.60;12.50;;;9.30;99.90;;;;;;5973703;23;20193;-78
2022/04/23 05:38:24;;;;;;;13.70;12.55;;;9.30;99.90;;;;;;5970577;24;20216;-77
2022/04/23 05:40:52;;;;;;;14.05;12.85;;;9.30;99.90;;;;;;5975422;24;20243;-78
2022/04/23 05:43:19;;;;;;;13.85;12.70;;;9.30;99.90;;;;;;5969520;24;20203;-77
2022/04/23 05:45:46;;;;;;;13.05;11.90;;;9.50;99.90;;;;;;5975519;24;20220;-77
2022/04/23 05:48:13;;;;;;;14.00;12.80;;;9.60;99.90;;;;;;5974094;23;20314;-78
2022/04/23 05:50:40;;;;;;;13.50;12.30;;;9.70;99.90;;;;;;5971399;24;20196;-78
2022/04/23 05:53:07;;;;;;;12.80;11.70;;;9.60;99.90;;;;;;5975113;24;20280;-78
2022/04/23 05:55:34;;;;;;;12.40;11.25;;;9.60;99.90;;;;;;5975824;24;20198;-78
2022/04/23 05:58:03;;;;;;;12.18;11.18;;;9.70;99.90;;;;;;5972911;24;20685;-77
2022/04/23 06:00:30;;;;;;;12.18;11.18;;;9.70;99.90;;;;;;5974380;24;20219;-77
2022/04/23 06:02:57;;;;;;;12.43;11.43;;;9.70;99.90;;;;;;5974028;23;20661;-77
2022/04/23 06:05:24;;;;;;;12.55;11.45;;;9.70;99.90;;;;;;5973338;24;20280;-77
2022/04/23 06:07:50;;;;;;;11.38;10.38;;;9.80;99.90;;;;;;5975277;24;20305;-78
2022/04/23 06:10:17;;;;;;;11.93;10.85;;;9.80;99.90;;;;;;5973746;24;20544;-78
2022/04/23 06:12:44;;;;;;;11.88;10.85;;;9.90;99.90;;;;;;5974551;24;20214;-77
2022/04/23 06:15:12;;;;;;;11.52;10.52;;;10.00;99.90;;;;;;5976120;24;20200;-77
2022/04/23 06:17:39;;;;;;;10.25;9.45;;;10.10;99.90;;;;;;5975103;24;20270;-77
2022/04/23 06:20:07;;;;;;;11.10;10.20;;;10.20;99.90;;;;;;5972258;23;21492;-78
2022/04/23 06:22:34;;;;;;;10.02;9.15;;;10.20;99.90;;;;;;5975106;23;20222;-78
2022/04/23 06:25:02;;;;;;;9.63;8.88;;;10.20;99.90;;;;;;5977071;24;20186;-78
2022/04/23 06:27:30;;;;;;;10.13;9.23;;;10.30;99.90;;;;;;5979562;24;20211;-77
2022/04/23 06:29:58;;;;;;;10.50;9.50;;;10.30;99.90;;;;;;5978423;24;20208;-77
2022/04/23 06:32:26;;;;;;;9.10;8.40;;;10.30;99.90;;;;;;5974712;24;20698;-78
2022/04/23 06:34:53;;;;;;;9.50;8.70;;;10.40;99.90;;;;;;5977080;23;20193;-78
2022/04/23 06:37:20;;;;;;;9.35;8.65;;;10.50;99.90;;;;;;5971403;23;20218;-79
2022/04/23 06:39:47;;;;;;;9.50;8.75;;;10.50;99.90;;;;;;5975258;24;20218;-78
2022/04/23 06:42:14;;;;;;;8.45;7.65;;;10.60;99.90;;;;;;5968661;23;20218;-78
2022/04/23 06:44:41;;;;;;;8.95;8.15;;;10.60;99.90;;;;;;5976872;24;20253;-78
2022/04/23 06:47:08;;;;;;;8.60;7.95;;;10.80;99.90;;;;;;5975142;24;20258;-78
2022/04/23 06:49:36;;;;;;;8.38;7.68;;;10.80;99.90;;;;;;5970571;24;20693;-77
2022/04/23 06:52:04;;;;;;;9.88;9.07;;;10.80;99.90;;;;;;5974236;23;20607;-78
2022/04/23 06:54:31;;;;;;;8.15;7.45;;;10.80;99.90;;;;;;5967546;24;20194;-77
2022/04/23 06:56:58;;;;;;;9.43;8.63;;;10.90;99.90;;;;;;5976339;24;20611;-78
2022/04/23 06:59:26;;;;;;;8.10;7.50;;;11.00;99.90;;;;;;5956447;24;20183;-77
2022/04/23 07:01:53;;;;;;;8.02;7.43;;;11.10;99.90;;;;;;5977868;24;20246;-77
2022/04/23 07:04:20;;;;;;;8.07;7.47;;;11.30;99.90;;;;;;5979836;24;20210;-78
2022/04/23 07:06:48;;;;;;;7.47;6.97;;;11.40;99.90;;;;;;5975851;23;20198;-78
2022/04/23 07:09:15;;;;;;;7.80;7.20;;;11.40;99.90;;;;;;5976378;24;20202;-78
2022/04/23 07:11:42;;;;;;;7.97;7.35;;;11.50;99.90;;;;;;5974196;24;20705;-78
2022/04/23 07:14:09;;;;;;;7.45;6.85;;;11.50;99.90;;;;;;5976740;23;20190;-79
2022/04/23 07:16:36;;;;;;;7.28;6.68;;;11.60;99.90;;;;;;5978292;24;20281;-78
2022/04/23 07:19:04;;;;;;;6.90;6.30;;;11.80;99.90;;;;;;5971955;24;20218;-78
2022/04/23 07:21:31;;;;;;;7.63;7.03;;;11.90;99.90;;;;;;5976901;24;20199;-79
2022/04/23 07:24:08;;;;;;;7.40;6.80;;;11.90;99.90;;;;;;5975882;24;20199;-79
2022/04/23 07:26:37;;;;;;;7.10;6.60;;;11.90;99.90;;;;;;5974472;23;21500;-78
2022/04/23 07:29:07;;;;;;;6.70;6.20;;;11.80;99.90;;;;;;5977716;24;20261;-78
2022/04/23 07:31:35;;;;;;;6.03;5.55;;;11.80;99.90;;;;;;5976248;24;20197;-78
2022/04/23 07:39:32;;;;;;;6.93;6.32;;;11.60;99.90;;;;;;5974884;24;20324;-78
2022/04/23 07:41:59;;;;;;;6.93;6.40;;;11.60;99.90;;;;;;5971945;23;20225;-77
2022/04/23 07:44:27;;;;;;;6.35;5.85;;;11.60;99.90;;;;;;5976111;24;20219;-78
2022/04/23 07:46:53;;;;;;;6.35;5.85;;;11.60;99.90;;;;;;5975266;24;20214;-78
2022/04/23 07:49:20;;;;;;;6.55;6.05;;;11.80;99.90;;;;;;5976711;24;20195;-78
2022/04/23 07:51:49;;;;;;;6.40;5.95;;;11.80;99.90;;;;;;5975223;24;20870;-78
2022/04/23 07:54:16;;;;;;;5.82;5.32;;;11.90;99.90;;;;;;5977254;24;20199;-80
2022/04/23 07:56:45;;;;;;;6.85;6.32;;;12.00;99.90;;;;;;5970545;23;20625;-79
2022/04/23 07:59:12;;;;;;;6.38;5.90;;;12.20;99.90;;;;;;5966707;23;20663;-79
2022/04/23 08:01:39;;;;;;;6.20;5.70;;;12.40;99.90;;;;;;5968576;23;20194;-79
2022/04/23 08:04:06;;;;;;;5.60;5.20;;;12.50;99.90;;;;;;5974972;23;20202;-79
2022/04/23 08:06:34;;;;;;;6.03;5.53;;;12.50;99.90;;;;;;5977296;24;20249;-79
2022/04/23 08:09:01;;;;;;;5.78;5.28;;;12.60;99.90;;;;;;5976390;24;20714;-81
2022/04/23 08:11:28;;;;;;;6.30;5.70;;;12.70;99.90;;;;;;5975125;24;20650;-79
2022/04/23 08:13:57;;;;;;;5.82;5.32;;;12.70;99.90;;;;;;5960760;23;20183;-76
2022/04/23 08:16:26;;;;;;;5.78;5.35;;;12.80;99.90;;;;;;5965260;24;20187;-79
2022/04/23 08:18:54;;;;;;;5.80;5.30;;;12.90;99.90;;;;;;5968033;24;20274;-78
2022/04/23 08:21:21;;;;;;;5.70;5.30;;;12.90;99.90;;;;;;5969662;24;20658;-78
2022/04/23 08:23:48;;;;;;;6.32;5.82;;;12.90;99.90;;;;;;5974812;24;20223;-78
2022/04/23 08:26:15;;;;;;;6.65;6.10;;;13.00;99.90;;;;;;5971671;24;20194;-80
2022/04/23 08:31:28;;;;;;;6.00;5.50;;;13.10;99.90;;;;;;5975569;24;20243;-79
2022/04/23 08:34:04;;;;;;;6.60;6.10;;;13.20;99.90;;;;;;5978081;23;20191;-79
2022/04/23 08:36:35;;;;;;;7.30;6.60;;;13.20;99.90;;;;;;5963548;24;20189;-79
2022/04/23 08:39:04;;;;;;;6.75;6.10;;;13.30;99.90;;;;;;5963732;24;20470;-79
2022/04/23 08:41:32;;;;;;;7.13;6.53;;;13.30;99.90;;;;;;5966149;24;20535;-79
2022/04/23 08:44:05;;;;;;;6.68;6.15;;;13.30;99.90;;;;;;5972093;24;20210;-79
2022/04/23 08:46:38;;;;;;;6.35;5.85;;;13.30;99.90;;;;;;5969471;23;20207;-79
2022/04/23 08:49:09;;;;;;;7.40;6.80;;;13.40;99.90;;;;;;5967212;24;20194;-79
2022/04/23 08:51:38;;;;;;;6.63;6.13;;;13.60;99.90;;;;;;5963713;24;20448;-79
2022/04/23 08:54:07;;;;;;;6.40;5.90;;;13.70;99.90;;;;;;5975190;24;20517;-79
2022/04/23 08:56:36;;;;;;;7.68;6.75;;;13.60;99.90;;;;;;5972908;24;20214;-79
2022/04/23 08:59:04;;;;;;;7.10;6.50;;;13.50;99.90;;;;;;5972547;24;20206;-79
2022/04/23 09:01:34;;;;;;;7.20;6.55;;;13.40;99.90;;;;;;5969101;23;20873;-79
2022/04/23 09:04:04;;;;;;;6.72;6.13;;;13.40;99.90;;;;;;5966786;24;20219;-86
2022/04/23 09:06:35;;;;;;;6.28;5.78;;;13.30;99.90;;;;;;5972204;24;20222;-84
2022/04/23 09:09:12;;;;;;;6.60;6.10;;;13.30;99.90;;;;;;5968371;24;20649;-79
2022/04/23 09:11:41;;;;;;;6.60;6.00;;;13.20;99.90;;;;;;5972502;23;20198;-79
2022/04/23 09:14:09;;;;;;;6.30;5.80;;;13.20;99.90;;;;;;5972868;24;20210;-78
2022/04/23 09:25:11;;;;;;;5.38;4.90;;;13.40;99.90;;;;;;5970113;23;20274;-79
2022/04/23 09:27:38;;;;;;;6.00;5.40;;;13.50;99.90;;;;;;5967389;24;20218;-79
2022/04/23 09:30:07;;;;;;;5.20;4.80;;;13.70;99.90;;;;;;5969665;24;20459;-80
2022/04/23 09:32:35;;;;;;;5.30;4.80;;;13.90;99.90;;;;;;5974019;24;20474;-79
2022/04/23 09:35:11;;;;;;;5.20;4.70;;;13.90;99.90;;;;;;5968554;24;20587;-79
2022/04/23 09:40:26;;;;;;;5.00;4.60;;;13.70;99.90;;;;;;5945240;23;20225;-79
2022/04/23 09:42:57;;;;;;;4.82;4.43;;;13.40;99.90;;;;;;5961710;23;20219;-79
2022/04/23 09:45:26;;;;;;;4.70;4.38;;;13.50;99.90;;;;;;5967077;24;20676;-78
2022/04/23 09:47:54;;;;;;;4.40;4.10;;;13.60;99.90;;;;;;5959480;24;20221;-80
2022/04/23 09:50:23;;;;;;;5.03;4.63;;;13.70;99.90;;;;;;5958730;23;20444;-80
2022/04/23 09:52:50;;;;;;;4.15;3.85;;;13.60;99.90;;;;;;5965957;24;20439;-79
2022/04/23 09:55:20;;;;;;;5.18;4.68;;;13.60;99.90;;;;;;5966817;24;20193;-79
2022/04/23 09:57:48;;;;;;;5.20;4.80;;;13.60;99.90;;;;;;5966918;23;20266;-79
2022/04/23 10:00:16;;;;;;;4.70;4.30;;;13.50;99.90;;;;;;5969322;24;20276;-79
2022/04/23 10:02:46;;;;;;;6.28;4.65;;;13.60;99.90;;;;;;5968722;24;20215;-79
2022/04/23 10:05:15;;;;;;;4.82;4.47;;;13.50;99.90;;;;;;6003304;23;20224;-74
2022/04/23 10:07:48;;;;;;;5.22;4.82;;;13.40;99.90;;;;;;6005574;23;20519;-73
2022/04/23 10:10:18;;;;;;;4.78;4.38;;;13.40;99.90;;;;;;6019012;23;20220;-73
2022/04/23 10:12:46;;;;;;;4.97;4.68;;;13.40;99.90;;;;;;6007596;23;20208;-72
2022/04/23 10:15:15;;;;;;;4.80;4.40;;;13.50;99.90;;;;;;6008402;23;20192;-72
2022/04/23 10:17:43;;;;;;;5.70;5.20;;;13.60;99.90;;;;;;6010193;23;20256;-73
2022/04/23 10:20:13;;;;;;;5.65;5.15;;;13.60;99.90;;;;;;6012966;23;20229;-73
2022/04/23 10:22:55;;;;;;;5.03;4.63;;;13.50;99.90;;;;;;6015931;23;20581;-73
2022/04/23 10:25:30;;;;;;;5.70;5.30;;;13.70;99.90;;;;;;6010099;23;20467;-73
2022/04/23 10:27:58;;;;;;;5.45;4.95;;;13.80;99.90;;;;;;6006052;23;20312;-72
2022/04/23 10:30:28;;;;;;;5.05;4.65;;;13.80;99.90;;;;;;6007631;23;20541;-73
2022/04/23 10:32:55;;;;;;;5.40;4.90;;;13.90;99.90;;;;;;6004596;23;20192;-73
2022/04/23 10:35:35;;;;;;;5.55;5.15;;;14.20;99.90;;;;;;6010800;23;20771;-73
2022/04/23 10:38:21;;;;;;;5.40;4.90;;;14.40;99.90;;;;;;6009404;23;20315;-73
2022/04/23 10:40:53;;;;;;;5.30;4.90;;;14.70;99.90;;;;;;6011638;23;20511;-72
2022/04/23 10:43:20;;;;;;;5.40;5.00;;;14.80;99.90;;;;;;6008525;23;20630;-73
2022/04/23 10:45:48;;;;;;;5.70;5.30;;;14.70;99.90;;;;;;6011403;23;20457;-73
2022/04/23 10:48:32;;;;;;;5.43;4.93;;;14.70;99.90;;;;;;6012581;23;20446;-73
2022/04/23 10:51:03;;;;;;;5.53;5.10;;;14.80;99.90;;;;;;6005160;23;20561;-73
2022/04/23 10:53:52;;;;;;;5.10;4.80;;;14.80;99.90;;;;;;6007557;23;20437;-73
2022/04/23 10:56:20;;;;;;;5.90;5.47;;;14.90;99.90;;;;;;6005835;23;20461;-73
2022/04/23 10:58:48;;;;;;;5.30;4.80;;;15.00;99.90;;;;;;6002348;23;20447;-73
2022/04/23 11:01:20;;;;;;;5.57;5.17;;;15.10;99.90;;;;;;6003788;23;20436;-77
2022/04/23 11:04:10;;;;;;;5.20;4.80;;;15.20;99.90;;;;;;6017836;23;20474;-72
2022/04/23 11:12:32;;;;;;;5.70;5.10;;;15.60;99.90;;;;;;5947690;23;20463;-73
2022/04/23 11:15:01;;;;;;;5.67;5.27;;;15.70;99.90;;;;;;6007792;23;20948;-73
2022/04/23 11:17:49;;;;;;;5.60;5.20;;;15.80;99.90;;;;;;6014373;23;20461;-73
2022/04/23 11:20:31;;;;;;;6.43;5.90;;;15.80;99.90;;;;;;6002323;23;20597;-73
2022/04/23 11:22:59;;;;;;;6.93;6.33;;;15.60;99.90;;;;;;6003082;23;20979;-73
2022/04/23 11:25:28;;;;;;;7.27;6.67;;;15.40;99.90;;;;;;6011912;23;20437;-73
2022/04/23 11:28:00;;;;;;;7.40;6.80;;;15.20;99.90;;;;;;6017955;23;20491;-74
2022/04/23 11:30:32;;;;;;;7.23;6.63;;;15.10;99.90;;;;;;6003888;23;20435;-73
2022/04/23 11:33:13;;;;;;;9.03;8.10;;;15.00;99.90;;;;;;6005448;23;20448;-73
2022/04/23 11:35:40;;;;;;;7.03;6.53;;;14.90;99.90;;;;;;6017949;23;20517;-73
2022/04/23 11:38:18;;;;;;;7.60;7.00;;;14.90;99.90;;;;;;6011120;23;20441;-73
2022/04/23 11:40:47;;;;;;;7.33;6.73;;;14.80;99.90;;;;;;6012563;23;20445;-73
2022/04/23 11:43:29;;;;;;;7.30;6.63;;;14.70;99.90;;;;;;6006715;23;20560;-73
2022/04/23 11:46:01;;;;;;;7.10;6.50;;;14.60;99.90;;;;;;6006534;23;21150;-73
2022/04/23 11:48:28;;;;;;;6.97;6.37;;;14.70;99.90;;;;;;6009793;23;20445;-73
2022/04/23 11:51:05;;;;;;;6.93;6.37;;;14.80;99.90;;;;;;6011183;23;20446;-73
2022/04/23 11:53:49;;;;;;;7.30;6.70;;;15.10;99.90;;;;;;6002465;23;20892;-73
2022/04/23 11:56:23;;;;;;;7.30;6.70;;;15.50;99.90;;;;;;6028166;23;20486;-73
2022/04/23 11:58:53;;;;;;;7.30;6.70;;;15.90;99.90;;;;;;6007807;23;20441;-73
2022/04/23 12:01:22;;;;;;;6.80;6.30;;;16.00;99.90;;;;;;6001056;23;20809;-73
2022/04/23 12:03:49;;;;;;;7.03;6.50;;;16.00;99.90;;;;;;6003616;23;20488;-73
2022/04/23 12:06:16;;;;;;;7.63;7.03;;;16.10;99.90;;;;;;6007287;23;20514;-73
2022/04/23 12:08:44;;;;;;;7.20;6.60;;;15.90;99.90;;;;;;6006968;23;20442;-73
2022/04/23 12:11:26;;;;;;;6.43;5.93;;;15.60;99.90;;;;;;6003298;23;20446;-75
2022/04/23 12:13:54;;;;;;;6.70;6.20;;;15.50;99.90;;;;;;6010549;23;20448;-75
2022/04/23 12:16:36;;;;;;;7.40;6.80;;;15.40;99.90;;;;;;6006263;23;20514;-75
2022/04/23 12:19:05;;;;;;;6.77;6.27;;;15.40;99.90;;;;;;6007150;23;20443;-74
2022/04/23 12:21:33;;;;;;;7.33;6.83;;;15.40;99.90;;;;;;6003649;23;20452;-75
2022/04/23 12:24:00;;;;;;;6.80;6.30;;;15.60;99.90;;;;;;6005065;23;20538;-75
2022/04/23 12:26:34;;;;;;;6.97;6.37;;;15.80;99.90;;;;;;6007510;23;20471;-75
2022/04/23 12:43:28;;;;;;;6.77;6.27;;;16.50;99.90;;;;;;6008562;23;20551;-75
2022/04/23 12:46:08;;;;;;;7.10;6.50;;;16.70;99.90;;;;;;6004973;23;20462;-75
2022/04/23 12:48:58;;;;;;;8.60;8.00;;;16.70;99.90;;;;;;6014449;23;20529;-76
2022/04/23 12:51:25;;;;;;;10.67;7.20;;;16.50;99.90;;;;;;6019016;23;20475;-75
2022/04/23 12:53:52;;;;;;;8.20;7.60;;;16.60;99.90;;;;;;5998075;23;20488;-75
2022/04/23 12:56:19;;;;;;;8.30;7.70;;;16.30;99.90;;;;;;6005226;23;21362;-79
2022/04/23 12:58:48;;;;;;;8.30;7.70;;;16.10;99.90;;;;;;6020977;23;20483;-75
2022/04/23 13:01:15;;;;;;;7.93;7.33;;;16.20;99.90;;;;;;6014185;23;20623;-75
2022/04/23 13:03:44;;;;;;;8.30;7.50;;;16.20;99.90;;;;;;6011535;23;20453;-75
2022/04/23 13:08:56;;;;;;;8.17;7.33;;;16.40;99.90;;;;;;6009238;23;20437;-75
2022/04/23 13:11:27;;;;;;;8.90;8.20;;;16.40;99.90;;;;;;6020935;23;20465;-75
2022/04/23 13:13:59;;;;;;;8.47;7.87;;;16.60;99.90;;;;;;6002749;23;20530;-75
2022/04/23 13:16:28;;;;;;;8.93;8.27;;;16.50;99.90;;;;;;6015089;23;20543;-75
2022/04/23 13:18:56;;;;;;;8.70;8.10;;;16.10;99.90;;;;;;6003938;23;20436;-76
2022/04/23 13:21:25;;;;;;;9.30;8.50;;;15.80;99.90;;;;;;6001903;23;21009;-82
2022/04/23 13:23:52;;;;;;;9.67;8.87;;;15.60;99.90;;;;;;6013022;23;21218;-75
2022/04/23 13:26:20;;;;;;;8.30;7.70;;;15.60;99.90;;;;;;6011370;23;20456;-75
2022/04/23 13:28:48;;;;;;;8.80;8.20;;;15.60;99.90;;;;;;6009223;23;20445;-76
2022/04/23 13:31:17;;;;;;;8.80;8.20;;;15.60;99.90;;;;;;6006884;23;20979;-75
2022/04/23 13:33:44;;;;;;;9.67;8.90;;;15.60;99.90;;;;;;6015264;23;20448;-76